Time;durP1;ratioP1;P1;durP2;ratioP2;P2;SDS_P1;SDS_P2;PMS_P1;PMS_P2;Temp;Humidity;BMP_temperature;BMP_pressure;BME280_temperature;BME280_humidity;BME280_pressure;Samples;Min_cycle;Max_cycle;Signal;HPM_P1;HPM_P2
2021/07/09 00:08:25;;;;;;;7.90;3.40;;;22.20;70.30;;;;;;21030031;28;20466;-19
2021/07/09 00:18:26;;;;;;;6.35;3.35;;;22.30;70.30;;;;;;21040314;28;20120;-19
2021/07/09 00:28:27;;;;;;;7.33;3.00;;;22.20;70.20;;;;;;21053744;28;20035;-19
2021/07/09 00:38:27;;;;;;;3.83;2.67;;;22.20;70.20;;;;;;21056341;28;20485;-19
2021/07/09 00:48:28;;;;;;;4.53;2.90;;;22.20;70.00;;;;;;21051008;28;20032;-19
2021/07/09 00:58:29;;;;;;;4.75;2.85;;;22.20;70.00;;;;;;21046327;28;20030;-19
2021/07/09 01:08:30;;;;;;;4.50;2.90;;;22.20;70.10;;;;;;21014369;28;20043;-19
2021/07/09 01:18:30;;;;;;;3.47;2.40;;;22.20;70.00;;;;;;21039840;28;20028;-19
2021/07/09 01:28:31;;;;;;;4.63;2.80;;;22.20;69.90;;;;;;21060682;28;20032;-19
2021/07/09 01:38:33;;;;;;;4.25;2.50;;;22.10;69.80;;;;;;21070322;28;20032;-19
2021/07/09 01:48:33;;;;;;;3.78;2.05;;;22.10;69.80;;;;;;21065011;28;20026;-20
2021/07/09 01:58:34;;;;;;;4.53;2.50;;;22.10;69.70;;;;;;21049504;28;20064;-19
2021/07/09 02:08:34;;;;;;;3.78;2.28;;;22.10;69.60;;;;;;21046851;28;20547;-19
2021/07/09 02:18:35;;;;;;;3.80;2.53;;;22.10;69.60;;;;;;21047618;28;20118;-19
2021/07/09 02:28:35;;;;;;;4.13;2.25;;;22.10;69.70;;;;;;21064784;28;20043;-19
2021/07/09 02:38:36;;;;;;;6.15;2.53;;;22.10;69.70;;;;;;21062075;28;20056;-19
2021/07/09 02:48:36;;;;;;;5.85;2.45;;;22.10;69.70;;;;;;21066218;28;20394;-19
2021/07/09 02:58:37;;;;;;;7.00;2.78;;;22.10;69.80;;;;;;21062625;28;20386;-19
2021/07/09 03:08:37;;;;;;;4.82;3.00;;;22.10;69.70;;;;;;21062198;28;20175;-19
2021/07/09 03:18:38;;;;;;;6.03;2.75;;;22.00;69.70;;;;;;21062292;28;20486;-19
2021/07/09 03:28:39;;;;;;;7.55;2.72;;;22.00;69.70;;;;;;21048170;28;20089;-19
2021/07/09 03:38:39;;;;;;;7.57;3.08;;;22.00;69.60;;;;;;21053808;28;20039;-19
2021/07/09 03:48:40;;;;;;;4.85;3.05;;;22.00;69.50;;;;;;21049469;28;20028;-19
2021/07/09 03:58:40;;;;;;;5.65;3.20;;;22.00;69.60;;;;;;21046977;28;20245;-19
2021/07/09 04:08:41;;;;;;;6.05;3.92;;;22.00;69.60;;;;;;21058284;28;20023;-19
2021/07/09 04:18:42;;;;;;;8.70;3.90;;;22.00;69.80;;;;;;21058075;28;20048;-19
2021/07/09 04:28:42;;;;;;;6.40;3.53;;;22.00;69.70;;;;;;21052676;28;20021;-19
2021/07/09 04:38:43;;;;;;;5.15;3.33;;;22.00;69.60;;;;;;21050516;28;20028;-19
2021/07/09 04:48:44;;;;;;;12.35;5.60;;;22.00;69.70;;;;;;21048110;28;20111;-20
2021/07/09 04:58:44;;;;;;;14.60;7.73;;;22.00;70.10;;;;;;21055506;28;20062;-19
2021/07/09 05:08:45;;;;;;;14.15;9.27;;;21.90;70.00;;;;;;21043402;28;20474;-20
2021/07/09 05:18:45;;;;;;;11.75;7.25;;;21.80;70.00;;;;;;21056540;28;20039;-20
2021/07/09 05:28:47;;;;;;;13.30;6.18;;;21.90;69.70;;;;;;21059561;28;20024;-20
2021/07/09 05:38:48;;;;;;;11.57;7.72;;;21.90;69.50;;;;;;21053758;28;20374;-20
2021/07/09 05:48:48;;;;;;;11.32;7.30;;;21.80;69.50;;;;;;21042817;28;20082;-19
2021/07/09 05:58:49;;;;;;;10.57;6.80;;;21.70;69.70;;;;;;21052367;28;20039;-20
2021/07/09 06:08:50;;;;;;;12.88;7.15;;;21.80;69.80;;;;;;21062556;28;20036;-20
2021/07/09 06:18:50;;;;;;;11.25;7.20;;;21.70;69.70;;;;;;21082503;28;20493;-20
2021/07/09 06:28:51;;;;;;;9.23;6.90;;;21.70;69.70;;;;;;21056428;28;20394;-20
2021/07/09 06:38:52;;;;;;;9.35;7.22;;;21.80;69.90;;;;;;21055172;28;20494;-20
2021/07/09 06:48:53;;;;;;;12.30;8.27;;;21.70;70.00;;;;;;21056745;28;20102;-20
2021/07/09 06:58:53;;;;;;;10.48;8.15;;;21.70;70.00;;;;;;21048493;28;20715;-20
2021/07/09 07:08:54;;;;;;;9.80;8.80;;;21.70;70.20;;;;;;21062591;28;20511;-20
2021/07/09 07:18:55;;;;;;;10.52;7.40;;;21.70;70.20;;;;;;21063427;28;20103;-20
2021/07/09 07:28:55;;;;;;;8.02;6.85;;;21.70;70.30;;;;;;21051909;28;20062;-20
2021/07/09 07:38:56;;;;;;;7.40;6.70;;;21.60;70.80;;;;;;21056613;28;20115;-21
2021/07/09 07:48:57;;;;;;;9.55;7.75;;;21.60;70.40;;;;;;21052374;28;20039;-19
2021/07/09 07:58:57;;;;;;;10.48;9.38;;;21.60;70.40;;;;;;21046834;28;20035;-20
2021/07/09 08:08:59;;;;;;;10.38;8.43;;;21.70;70.60;;;;;;21056596;28;20082;-20
2021/07/09 08:19:00;;;;;;;11.50;7.70;;;21.60;70.70;;;;;;21057306;28;20028;-20
2021/07/09 08:29:01;;;;;;;9.02;8.05;;;21.60;70.70;;;;;;21053783;28;20032;-20
2021/07/09 08:39:03;;;;;;;10.63;7.85;;;21.60;70.70;;;;;;21051488;28;20030;-19
2021/07/09 08:49:07;;;;;;;11.10;7.57;;;21.60;70.80;;;;;;21055997;28;20055;-19
2021/07/09 08:59:08;;;;;;;9.93;8.15;;;21.60;70.80;;;;;;21051537;28;20225;-19
2021/07/09 09:09:16;;;;;;;11.98;8.80;;;21.60;71.10;;;;;;21041913;28;20334;-19
2021/07/09 09:19:21;;;;;;;7.97;7.15;;;21.60;70.90;;;;;;21037515;28;20028;-20
2021/07/09 09:29:25;;;;;;;11.52;9.15;;;21.60;71.20;;;;;;21050974;28;20073;-20
2021/07/09 09:39:25;;;;;;;14.15;9.70;;;21.60;71.30;;;;;;21053961;28;20559;-20
2021/07/09 09:49:30;;;;;;;9.35;8.48;;;21.70;71.40;;;;;;21060737;28;20024;-20
2021/07/09 09:59:32;;;;;;;11.07;8.57;;;21.70;71.60;;;;;;21066106;28;20058;-20
2021/07/09 10:09:33;;;;;;;8.10;7.30;;;21.60;72.00;;;;;;21066965;28;20094;-20
2021/07/09 10:19:40;;;;;;;8.32;7.00;;;21.70;71.80;;;;;;21101597;22;20466;-19
2021/07/09 10:29:43;;;;;;;10.85;7.47;;;21.70;71.90;;;;;;21158881;28;20023;-19
2021/07/09 10:39:50;;;;;;;7.43;6.72;;;21.70;72.00;;;;;;21161449;28;20043;-20
2021/07/09 10:49:51;;;;;;;7.90;7.20;;;21.70;72.00;;;;;;21161689;28;20059;-19
2021/07/09 11:00:20;;;;;;;8.18;7.28;;;21.70;72.20;;;;;;21161355;28;20019;-20
2021/07/09 11:10:59;;;;;;;8.25;6.90;;;21.70;72.40;;;;;;21160519;28;20049;-20
2021/07/09 11:21:00;;;;;;;12.63;7.70;;;21.70;72.70;;;;;;21157156;28;20051;-21
2021/07/09 11:31:00;;;;;;;8.52;6.88;;;21.60;72.60;;;;;;21170101;28;20446;-21
2021/07/09 11:41:08;;;;;;;9.27;8.40;;;21.70;73.00;;;;;;21171189;28;20417;-21
2021/07/09 11:51:09;;;;;;;9.20;8.23;;;21.60;73.30;;;;;;21181229;28;20023;-19
2021/07/09 12:01:18;;;;;;;9.82;8.85;;;21.70;73.50;;;;;;21171887;28;20077;-19
2021/07/09 12:11:19;;;;;;;12.18;8.50;;;21.60;73.70;;;;;;21128483;28;20024;-20
2021/07/09 12:21:21;;;;;;;11.60;8.00;;;21.60;73.60;;;;;;21149972;28;20508;-21
2021/07/09 12:31:22;;;;;;;9.93;7.47;;;21.70;73.50;;;;;;21127930;28;20038;-21
2021/07/09 12:41:31;;;;;;;12.20;9.80;;;21.70;73.70;;;;;;21126644;28;20031;-21
2021/07/09 12:51:38;;;;;;;10.43;8.45;;;21.80;73.70;;;;;;21130221;28;20032;-21
2021/07/09 13:01:40;;;;;;;11.30;7.53;;;21.70;74.00;;;;;;21107839;28;20034;-19
2021/07/09 13:11:46;;;;;;;7.45;6.57;;;21.70;73.70;;;;;;21135536;28;20033;-21
2021/07/09 13:21:53;;;;;;;7.85;5.80;;;21.70;73.40;;;;;;21133721;28;20038;-21
2021/07/09 13:32:00;;;;;;;13.15;6.95;;;21.80;73.10;;;;;;21151286;28;20035;-20
2021/07/09 13:42:00;;;;;;;10.27;7.15;;;21.70;73.50;;;;;;21163968;28;20478;-21
2021/07/09 13:52:01;;;;;;;10.73;7.32;;;21.80;73.90;;;;;;21160307;28;20039;-20
2021/07/09 14:02:02;;;;;;;8.30;6.25;;;21.80;73.50;;;;;;21165450;28;20019;-21
2021/07/09 14:12:05;;;;;;;11.07;6.30;;;21.80;73.50;;;;;;21165869;28;20051;-20
2021/07/09 14:22:05;;;;;;;16.33;6.80;;;21.80;73.60;;;;;;21164313;28;20469;-20
2021/07/09 14:32:06;;;;;;;16.57;5.60;;;21.80;73.10;;;;;;21164164;28;20046;-21
2021/07/09 14:42:07;;;;;;;14.68;4.75;;;21.80;72.60;;;;;;21146214;28;20473;-20
2021/07/09 14:52:07;;;;;;;14.68;5.65;;;21.80;72.70;;;;;;21146767;28;20050;-21
2021/07/09 15:02:09;;;;;;;19.20;5.75;;;21.80;72.40;;;;;;21159623;28;20106;-20
2021/07/09 15:12:10;;;;;;;32.35;5.93;;;21.80;72.50;;;;;;21157363;28;20031;-21
2021/07/09 15:22:11;;;;;;;25.23;7.22;;;21.80;72.00;;;;;;21159320;28;20034;-21
2021/07/09 15:32:12;;;;;;;29.58;6.88;;;21.80;72.10;;;;;;21147514;28;20032;-20
2021/07/09 15:42:12;;;;;;;21.77;6.38;;;21.80;72.00;;;;;;21176575;28;20036;-20
2021/07/09 15:52:13;;;;;;;19.70;5.38;;;21.80;71.80;;;;;;21151259;28;20023;-20
2021/07/09 16:02:13;;;;;;;33.38;6.55;;;21.80;71.70;;;;;;21143601;28;20019;-20
2021/07/09 16:12:14;;;;;;;15.73;5.85;;;21.80;72.20;;;;;;21150950;28;20132;-22
2021/07/09 16:22:14;;;;;;;15.53;5.80;;;21.80;72.00;;;;;;21134163;28;20031;-21
2021/07/09 16:32:15;;;;;;;10.75;5.00;;;21.80;72.00;;;;;;21124003;28;20027;-20
2021/07/09 16:42:16;;;;;;;16.27;6.95;;;21.80;72.30;;;;;;21135045;28;20065;-20
2021/07/09 16:52:16;;;;;;;14.65;4.90;;;21.80;72.10;;;;;;21113644;28;20031;-19
2021/07/09 17:02:18;;;;;;;12.88;5.45;;;21.80;72.20;;;;;;21129734;28;20147;-20
2021/07/09 17:12:20;;;;;;;11.13;5.03;;;21.80;72.00;;;;;;21127461;28;20032;-20
2021/07/09 17:22:20;;;;;;;9.93;6.10;;;21.80;71.90;;;;;;21149257;28;20027;-20
2021/07/09 17:32:21;;;;;;;13.32;6.35;;;21.80;71.80;;;;;;21136779;28;20023;-20
2021/07/09 17:42:22;;;;;;;15.07;8.27;;;21.80;72.30;;;;;;21139225;28;20436;-20
2021/07/09 17:52:22;;;;;;;14.85;8.82;;;21.80;73.10;;;;;;21123953;28;20031;-20
2021/07/09 18:02:23;;;;;;;17.60;10.17;;;21.80;73.10;;;;;;21134291;28;20084;-20
2021/07/09 18:12:23;;;;;;;13.88;9.10;;;22.00;73.50;;;;;;21144084;28;20034;-20
2021/07/09 18:22:24;;;;;;;18.13;8.40;;;22.00;73.90;;;;;;21151473;28;20032;-21
2021/07/09 18:32:24;;;;;;;18.25;10.55;;;22.00;73.80;;;;;;21151271;28;20023;-19
2021/07/09 18:42:25;;;;;;;20.35;12.70;;;22.00;73.00;;;;;;21124276;28;20063;-20
2021/07/09 18:52:26;;;;;;;21.38;13.13;;;22.20;72.40;;;;;;21128879;28;20031;-21
2021/07/09 19:02:27;;;;;;;23.77;10.95;;;22.40;71.70;;;;;;21121345;28;20034;-20
2021/07/09 19:12:27;;;;;;;12.07;9.90;;;22.50;71.40;;;;;;21139529;28;20031;-21
2021/07/09 19:22:28;;;;;;;11.80;9.48;;;22.50;71.10;;;;;;21127431;28;20032;-21
2021/07/09 19:32:29;;;;;;;13.93;10.20;;;22.50;71.10;;;;;;21150222;28;20089;-20
2021/07/09 19:42:29;;;;;;;9.63;8.63;;;22.60;70.60;;;;;;21153376;28;20024;-19
2021/07/09 19:52:30;;;;;;;11.40;8.88;;;22.60;70.00;;;;;;21149759;28;20047;-20
2021/07/09 20:02:31;;;;;;;21.45;8.80;;;22.70;69.80;;;;;;21156867;28;20031;-20
2021/07/09 20:12:31;;;;;;;9.82;8.73;;;22.80;69.60;;;;;;21157389;28;20059;-20
2021/07/09 20:22:32;;;;;;;13.30;9.27;;;22.70;69.20;;;;;;21156241;28;20074;-20
2021/07/09 20:32:34;;;;;;;23.27;10.15;;;22.70;69.10;;;;;;21147765;28;20420;-20
2021/07/09 20:42:35;;;;;;;72.65;31.85;;;22.80;69.00;;;;;;21162150;28;20038;-21
2021/07/09 20:52:36;;;;;;;67.82;31.52;;;22.50;70.30;;;;;;21138098;28;20028;-20
2021/07/09 21:02:37;;;;;;;57.03;27.98;;;22.30;70.60;;;;;;21154669;28;20035;-20
2021/07/09 21:12:38;;;;;;;58.10;28.13;;;22.20;70.60;;;;;;21149101;28;20026;-20
2021/07/09 21:22:39;;;;;;;53.15;28.02;;;22.20;71.00;;;;;;21150875;28;20058;-21
2021/07/09 21:32:40;;;;;;;45.95;24.20;;;22.20;71.20;;;;;;21143920;28;20482;-20
2021/07/09 21:42:41;;;;;;;46.83;23.58;;;22.10;71.30;;;;;;21156736;28;20489;-21
2021/07/09 21:52:42;;;;;;;38.40;22.38;;;22.10;71.30;;;;;;21171763;28;20028;-20
2021/07/09 22:02:43;;;;;;;41.72;22.83;;;22.10;71.30;;;;;;21171383;28;20169;-20
2021/07/09 22:12:44;;;;;;;37.95;19.50;;;22.10;71.30;;;;;;21148950;28;20032;-20
2021/07/09 22:22:45;;;;;;;31.27;17.87;;;22.10;71.30;;;;;;21139709;28;20032;-20
2021/07/09 22:32:45;;;;;;;32.63;16.42;;;22.10;71.10;;;;;;21132881;28;20457;-20
2021/07/09 22:42:46;;;;;;;18.85;12.20;;;22.00;70.90;;;;;;21135992;28;20053;-19
2021/07/09 22:52:47;;;;;;;23.65;13.10;;;22.10;70.80;;;;;;21133889;28;20406;-19
2021/07/09 23:02:47;;;;;;;27.38;13.73;;;22.10;70.60;;;;;;21132434;28;20043;-19
2021/07/09 23:12:48;;;;;;;29.00;15.20;;;22.00;70.40;;;;;;21130267;28;20531;-19
2021/07/09 23:22:49;;;;;;;24.43;16.37;;;22.00;70.50;;;;;;21122349;28;20032;-19
2021/07/09 23:32:50;;;;;;;23.23;12.73;;;22.00;70.50;;;;;;21126599;28;20503;-20
2021/07/09 23:42:50;;;;;;;24.70;13.63;;;22.00;70.50;;;;;;21108395;28;20874;-20
2021/07/09 23:52:51;;;;;;;18.52;13.60;;;22.00;70.50;;;;;;21128111;28;20117;-19
